sensor_id;sensor_type;location;lat;lon;timestamp;P1;durP1;ratioP1;P2;durP2;ratioP2
75700;SDS011;64321;48.796;44.740;2022-10-15T00:02:08;8.02;;;4.65;;
75700;SDS011;64321;48.796;44.740;2022-10-15T00:04:34;8.80;;;4.68;;
75700;SDS011;64321;48.796;44.740;2022-10-15T00:07:00;8.38;;;4.53;;
75700;SDS011;64321;48.796;44.740;2022-10-15T00:09:25;7.13;;;4.70;;
75700;SDS011;64321;48.796;44.740;2022-10-15T00:11:51;12.10;;;4.53;;
75700;SDS011;64321;48.796;44.740;2022-10-15T00:14:17;6.90;;;4.65;;
75700;SDS011;64321;48.796;44.740;2022-10-15T00:16:42;8.57;;;5.43;;
75700;SDS011;64321;48.796;44.740;2022-10-15T00:19:11;8.50;;;5.60;;
75700;SDS011;64321;48.796;44.740;2022-10-15T00:21:37;7.38;;;4.72;;
75700;SDS011;64321;48.796;44.740;2022-10-15T00:24:02;7.07;;;4.63;;
75700;SDS011;64321;48.796;44.740;2022-10-15T00:26:28;7.88;;;4.50;;
75700;SDS011;64321;48.796;44.740;2022-10-15T00:28:55;6.05;;;4.18;;
75700;SDS011;64321;48.796;44.740;2022-10-15T00:31:22;9.57;;;5.20;;
75700;SDS011;64321;48.796;44.740;2022-10-15T00:33:49;7.57;;;4.95;;
75700;SDS011;64321;48.796;44.740;2022-10-15T00:36:16;8.18;;;4.72;;
75700;SDS011;64321;48.796;44.740;2022-10-15T00:38:42;7.97;;;4.32;;
75700;SDS011;64321;48.796;44.740;2022-10-15T00:41:09;9.50;;;4.70;;
75700;SDS011;64321;48.796;44.740;2022-10-15T00:43:44;8.25;;;4.65;;
75700;SDS011;64321;48.796;44.740;2022-10-15T00:46:17;7.25;;;4.22;;
75700;SDS011;64321;48.796;44.740;2022-10-15T00:48:45;7.57;;;4.43;;
75700;SDS011;64321;48.796;44.740;2022-10-15T00:51:12;7.40;;;4.25;;
75700;SDS011;64321;48.796;44.740;2022-10-15T00:53:38;7.72;;;4.15;;
75700;SDS011;64321;48.796;44.740;2022-10-15T00:56:05;7.53;;;4.45;;
75700;SDS011;64321;48.796;44.740;2022-10-15T00:58:31;7.85;;;4.05;;
75700;SDS011;64321;48.796;44.740;2022-10-15T01:00:59;6.10;;;4.25;;
75700;SDS011;64321;48.796;44.740;2022-10-15T01:03:25;8.20;;;4.30;;
75700;SDS011;64321;48.796;44.740;2022-10-15T01:05:51;6.47;;;3.88;;
75700;SDS011;64321;48.796;44.740;2022-10-15T01:08:17;6.85;;;3.10;;
75700;SDS011;64321;48.796;44.740;2022-10-15T01:13:55;7.32;;;4.00;;
75700;SDS011;64321;48.796;44.740;2022-10-15T01:18:34;6.78;;;3.88;;
75700;SDS011;64321;48.796;44.740;2022-10-15T01:21:21;6.57;;;3.92;;
75700;SDS011;64321;48.796;44.740;2022-10-15T01:24:02;5.55;;;2.72;;
75700;SDS011;64321;48.796;44.740;2022-10-15T01:31:49;7.22;;;4.57;;
75700;SDS011;64321;48.796;44.740;2022-10-15T01:34:23;8.50;;;4.38;;
75700;SDS011;64321;48.796;44.740;2022-10-15T01:36:56;8.60;;;4.40;;
75700;SDS011;64321;48.796;44.740;2022-10-15T01:39:28;12.57;;;4.97;;
75700;SDS011;64321;48.796;44.740;2022-10-15T01:42:00;8.02;;;4.65;;
75700;SDS011;64321;48.796;44.740;2022-10-15T01:44:29;7.55;;;4.63;;
75700;SDS011;64321;48.796;44.740;2022-10-15T01:47:23;7.82;;;4.32;;
75700;SDS011;64321;48.796;44.740;2022-10-15T01:49:49;11.48;;;5.45;;
75700;SDS011;64321;48.796;44.740;2022-10-15T01:52:26;7.82;;;4.97;;
75700;SDS011;64321;48.796;44.740;2022-10-15T01:54:53;7.65;;;4.43;;
75700;SDS011;64321;48.796;44.740;2022-10-15T01:57:21;9.25;;;4.65;;
75700;SDS011;64321;48.796;44.740;2022-10-15T01:59:49;9.23;;;4.53;;
75700;SDS011;64321;48.796;44.740;2022-10-15T02:02:21;9.20;;;5.20;;
75700;SDS011;64321;48.796;44.740;2022-10-15T02:04:47;10.05;;;5.55;;
75700;SDS011;64321;48.796;44.740;2022-10-15T02:07:25;9.35;;;4.93;;
75700;SDS011;64321;48.796;44.740;2022-10-15T02:15:17;9.75;;;6.05;;
75700;SDS011;64321;48.796;44.740;2022-10-15T02:17:57;10.10;;;6.50;;
75700;SDS011;64321;48.796;44.740;2022-10-15T02:23:14;9.68;;;5.82;;
75700;SDS011;64321;48.796;44.740;2022-10-15T02:25:42;7.93;;;5.07;;
75700;SDS011;64321;48.796;44.740;2022-10-15T02:28:07;9.43;;;5.10;;
75700;SDS011;64321;48.796;44.740;2022-10-15T02:30:36;8.13;;;5.38;;
75700;SDS011;64321;48.796;44.740;2022-10-15T02:33:02;9.20;;;4.70;;
75700;SDS011;64321;48.796;44.740;2022-10-15T02:35:27;10.38;;;6.45;;
75700;SDS011;64321;48.796;44.740;2022-10-15T02:37:53;10.65;;;4.32;;
75700;SDS011;64321;48.796;44.740;2022-10-15T02:42:48;9.73;;;6.07;;
75700;SDS011;64321;48.796;44.740;2022-10-15T02:45:14;8.18;;;4.95;;
75700;SDS011;64321;48.796;44.740;2022-10-15T02:47:40;8.57;;;5.00;;
75700;SDS011;64321;48.796;44.740;2022-10-15T02:50:05;11.07;;;5.75;;
75700;SDS011;64321;48.796;44.740;2022-10-15T02:52:31;10.82;;;5.55;;
75700;SDS011;64321;48.796;44.740;2022-10-15T02:54:58;9.95;;;5.22;;
75700;SDS011;64321;48.796;44.740;2022-10-15T02:57:24;8.98;;;5.32;;
75700;SDS011;64321;48.796;44.740;2022-10-15T02:59:50;9.68;;;5.45;;
75700;SDS011;64321;48.796;44.740;2022-10-15T03:02:16;9.32;;;5.70;;
75700;SDS011;64321;48.796;44.740;2022-10-15T03:04:41;9.35;;;4.95;;
75700;SDS011;64321;48.796;44.740;2022-10-15T03:07:07;9.15;;;5.22;;
75700;SDS011;64321;48.796;44.740;2022-10-15T03:09:33;8.75;;;4.60;;
75700;SDS011;64321;48.796;44.740;2022-10-15T03:12:01;11.30;;;4.90;;
75700;SDS011;64321;48.796;44.740;2022-10-15T03:14:28;10.35;;;5.70;;
75700;SDS011;64321;48.796;44.740;2022-10-15T03:16:54;10.05;;;5.90;;
75700;SDS011;64321;48.796;44.740;2022-10-15T03:19:20;11.50;;;6.43;;
75700;SDS011;64321;48.796;44.740;2022-10-15T03:21:45;10.55;;;5.65;;
75700;SDS011;64321;48.796;44.740;2022-10-15T03:24:13;11.88;;;6.00;;
75700;SDS011;64321;48.796;44.740;2022-10-15T03:26:39;11.77;;;5.75;;
75700;SDS011;64321;48.796;44.740;2022-10-15T03:29:05;9.73;;;4.78;;
75700;SDS011;64321;48.796;44.740;2022-10-15T03:31:40;9.65;;;5.43;;
75700;SDS011;64321;48.796;44.740;2022-10-15T03:34:06;8.63;;;4.63;;
75700;SDS011;64321;48.796;44.740;2022-10-15T03:36:32;10.10;;;4.72;;
75700;SDS011;64321;48.796;44.740;2022-10-15T03:38:59;12.20;;;5.45;;
75700;SDS011;64321;48.796;44.740;2022-10-15T03:41:24;10.23;;;5.07;;
75700;SDS011;64321;48.796;44.740;2022-10-15T03:43:51;8.55;;;5.05;;
75700;SDS011;64321;48.796;44.740;2022-10-15T03:46:16;8.52;;;4.60;;
75700;SDS011;64321;48.796;44.740;2022-10-15T03:48:47;8.15;;;5.18;;
75700;SDS011;64321;48.796;44.740;2022-10-15T03:51:14;16.98;;;6.05;;
75700;SDS011;64321;48.796;44.740;2022-10-15T03:53:40;11.77;;;5.20;;
75700;SDS011;64321;48.796;44.740;2022-10-15T03:56:06;8.93;;;4.65;;
75700;SDS011;64321;48.796;44.740;2022-10-15T03:58:36;8.40;;;4.68;;
75700;SDS011;64321;48.796;44.740;2022-10-15T04:01:11;10.23;;;4.65;;
75700;SDS011;64321;48.796;44.740;2022-10-15T04:03:37;9.48;;;4.30;;
75700;SDS011;64321;48.796;44.740;2022-10-15T04:06:03;9.27;;;4.18;;
75700;SDS011;64321;48.796;44.740;2022-10-15T04:08:29;9.27;;;5.32;;
75700;SDS011;64321;48.796;44.740;2022-10-15T04:10:55;9.13;;;4.97;;
75700;SDS011;64321;48.796;44.740;2022-10-15T04:13:22;7.25;;;4.57;;
75700;SDS011;64321;48.796;44.740;2022-10-15T04:15:47;10.32;;;4.85;;
75700;SDS011;64321;48.796;44.740;2022-10-15T04:18:13;10.85;;;4.68;;
75700;SDS011;64321;48.796;44.740;2022-10-15T04:20:39;8.95;;;5.45;;
75700;SDS011;64321;48.796;44.740;2022-10-15T04:23:18;11.98;;;6.00;;
75700;SDS011;64321;48.796;44.740;2022-10-15T04:26:04;8.77;;;4.65;;
75700;SDS011;64321;48.796;44.740;2022-10-15T04:28:30;10.35;;;5.45;;
75700;SDS011;64321;48.796;44.740;2022-10-15T04:30:57;11.35;;;5.25;;
75700;SDS011;64321;48.796;44.740;2022-10-15T04:33:23;9.98;;;4.65;;
75700;SDS011;64321;48.796;44.740;2022-10-15T04:35:59;8.73;;;4.85;;
75700;SDS011;64321;48.796;44.740;2022-10-15T04:38:41;8.57;;;5.03;;
75700;SDS011;64321;48.796;44.740;2022-10-15T04:41:08;6.30;;;3.40;;
75700;SDS011;64321;48.796;44.740;2022-10-15T04:43:55;7.88;;;4.10;;
75700;SDS011;64321;48.796;44.740;2022-10-15T04:46:21;8.25;;;4.28;;
75700;SDS011;64321;48.796;44.740;2022-10-15T04:48:48;10.77;;;4.25;;
75700;SDS011;64321;48.796;44.740;2022-10-15T04:51:15;7.65;;;3.75;;
75700;SDS011;64321;48.796;44.740;2022-10-15T04:54:00;7.90;;;4.32;;
75700;SDS011;64321;48.796;44.740;2022-10-15T04:56:27;7.35;;;4.07;;
75700;SDS011;64321;48.796;44.740;2022-10-15T04:58:54;7.40;;;4.10;;
75700;SDS011;64321;48.796;44.740;2022-10-15T05:01:20;9.25;;;4.20;;
75700;SDS011;64321;48.796;44.740;2022-10-15T05:03:57;7.65;;;3.90;;
75700;SDS011;64321;48.796;44.740;2022-10-15T05:06:23;7.47;;;3.70;;
75700;SDS011;64321;48.796;44.740;2022-10-15T05:08:54;7.40;;;3.38;;
75700;SDS011;64321;48.796;44.740;2022-10-15T05:11:25;6.25;;;3.40;;
75700;SDS011;64321;48.796;44.740;2022-10-15T05:13:56;7.47;;;3.83;;
75700;SDS011;64321;48.796;44.740;2022-10-15T05:16:24;8.20;;;4.07;;
75700;SDS011;64321;48.796;44.740;2022-10-15T05:18:51;5.90;;;2.88;;
75700;SDS011;64321;48.796;44.740;2022-10-15T05:21:17;8.73;;;3.75;;
75700;SDS011;64321;48.796;44.740;2022-10-15T05:23:46;5.70;;;2.53;;
75700;SDS011;64321;48.796;44.740;2022-10-15T05:26:34;5.82;;;2.88;;
75700;SDS011;64321;48.796;44.740;2022-10-15T05:29:00;5.93;;;3.45;;
75700;SDS011;64321;48.796;44.740;2022-10-15T05:31:29;6.03;;;3.45;;
75700;SDS011;64321;48.796;44.740;2022-10-15T05:34:06;6.15;;;3.13;;
75700;SDS011;64321;48.796;44.740;2022-10-15T05:36:36;5.50;;;3.63;;
75700;SDS011;64321;48.796;44.740;2022-10-15T05:39:03;6.97;;;3.50;;
75700;SDS011;64321;48.796;44.740;2022-10-15T05:41:32;6.85;;;3.40;;
75700;SDS011;64321;48.796;44.740;2022-10-15T05:43:59;6.72;;;3.78;;
75700;SDS011;64321;48.796;44.740;2022-10-15T05:46:28;5.60;;;3.78;;
75700;SDS011;64321;48.796;44.740;2022-10-15T05:48:55;6.47;;;3.25;;
75700;SDS011;64321;48.796;44.740;2022-10-15T05:51:22;9.00;;;3.42;;
75700;SDS011;64321;48.796;44.740;2022-10-15T05:53:51;6.05;;;3.20;;
75700;SDS011;64321;48.796;44.740;2022-10-15T05:56:18;6.32;;;3.03;;
75700;SDS011;64321;48.796;44.740;2022-10-15T05:58:43;7.57;;;3.25;;
75700;SDS011;64321;48.796;44.740;2022-10-15T06:01:11;7.78;;;3.13;;
75700;SDS011;64321;48.796;44.740;2022-10-15T06:03:37;7.72;;;3.47;;
75700;SDS011;64321;48.796;44.740;2022-10-15T06:06:03;5.53;;;3.08;;
75700;SDS011;64321;48.796;44.740;2022-10-15T06:08:34;5.10;;;3.22;;
75700;SDS011;64321;48.796;44.740;2022-10-15T06:11:02;7.03;;;3.08;;
75700;SDS011;64321;48.796;44.740;2022-10-15T06:13:28;6.38;;;3.40;;
75700;SDS011;64321;48.796;44.740;2022-10-15T06:15:54;6.43;;;4.05;;
75700;SDS011;64321;48.796;44.740;2022-10-15T06:18:19;5.97;;;2.95;;
75700;SDS011;64321;48.796;44.740;2022-10-15T06:20:49;8.20;;;3.55;;
75700;SDS011;64321;48.796;44.740;2022-10-15T06:23:16;9.57;;;3.30;;
75700;SDS011;64321;48.796;44.740;2022-10-15T06:25:42;5.90;;;3.00;;
75700;SDS011;64321;48.796;44.740;2022-10-15T06:28:07;4.60;;;3.00;;
75700;SDS011;64321;48.796;44.740;2022-10-15T06:30:43;6.10;;;2.35;;
75700;SDS011;64321;48.796;44.740;2022-10-15T06:33:09;7.35;;;3.53;;
75700;SDS011;64321;48.796;44.740;2022-10-15T06:35:34;6.07;;;3.33;;
75700;SDS011;64321;48.796;44.740;2022-10-15T06:38:00;8.13;;;3.08;;
75700;SDS011;64321;48.796;44.740;2022-10-15T06:40:26;5.45;;;3.92;;
75700;SDS011;64321;48.796;44.740;2022-10-15T06:42:52;8.10;;;3.15;;
75700;SDS011;64321;48.796;44.740;2022-10-15T06:45:17;6.70;;;2.75;;
75700;SDS011;64321;48.796;44.740;2022-10-15T06:47:43;7.55;;;2.90;;
75700;SDS011;64321;48.796;44.740;2022-10-15T06:50:09;7.40;;;2.58;;
75700;SDS011;64321;48.796;44.740;2022-10-15T06:52:35;8.10;;;2.92;;
75700;SDS011;64321;48.796;44.740;2022-10-15T06:55:02;5.00;;;2.30;;
75700;SDS011;64321;48.796;44.740;2022-10-15T06:57:28;5.50;;;3.08;;
75700;SDS011;64321;48.796;44.740;2022-10-15T06:59:53;7.28;;;3.17;;
75700;SDS011;64321;48.796;44.740;2022-10-15T07:02:19;7.28;;;3.20;;
75700;SDS011;64321;48.796;44.740;2022-10-15T07:04:45;7.00;;;3.05;;
75700;SDS011;64321;48.796;44.740;2022-10-15T07:07:16;5.30;;;2.72;;
75700;SDS011;64321;48.796;44.740;2022-10-15T07:09:42;4.35;;;2.47;;
75700;SDS011;64321;48.796;44.740;2022-10-15T07:12:08;5.13;;;2.25;;
75700;SDS011;64321;48.796;44.740;2022-10-15T07:14:34;5.55;;;2.83;;
75700;SDS011;64321;48.796;44.740;2022-10-15T07:17:00;6.95;;;2.72;;
75700;SDS011;64321;48.796;44.740;2022-10-15T07:19:27;7.82;;;3.00;;
75700;SDS011;64321;48.796;44.740;2022-10-15T07:21:53;7.15;;;3.17;;
75700;SDS011;64321;48.796;44.740;2022-10-15T07:24:18;6.30;;;3.10;;
75700;SDS011;64321;48.796;44.740;2022-10-15T07:26:45;5.40;;;2.40;;
75700;SDS011;64321;48.796;44.740;2022-10-15T07:29:11;6.82;;;3.00;;
75700;SDS011;64321;48.796;44.740;2022-10-15T07:31:37;5.35;;;2.80;;
75700;SDS011;64321;48.796;44.740;2022-10-15T07:34:02;6.32;;;2.45;;
75700;SDS011;64321;48.796;44.740;2022-10-15T07:36:28;4.25;;;2.58;;
75700;SDS011;64321;48.796;44.740;2022-10-15T07:38:54;5.65;;;3.42;;
75700;SDS011;64321;48.796;44.740;2022-10-15T07:41:20;6.22;;;2.53;;
75700;SDS011;64321;48.796;44.740;2022-10-15T07:43:45;4.45;;;1.90;;
75700;SDS011;64321;48.796;44.740;2022-10-15T07:46:11;5.15;;;2.90;;
75700;SDS011;64321;48.796;44.740;2022-10-15T07:48:36;3.70;;;2.20;;
75700;SDS011;64321;48.796;44.740;2022-10-15T07:51:03;3.00;;;2.13;;
75700;SDS011;64321;48.796;44.740;2022-10-15T07:53:29;5.97;;;2.47;;
75700;SDS011;64321;48.796;44.740;2022-10-15T07:56:02;5.00;;;1.90;;
75700;SDS011;64321;48.796;44.740;2022-10-15T07:58:32;3.88;;;2.38;;
75700;SDS011;64321;48.796;44.740;2022-10-15T08:00:59;3.08;;;2.28;;
75700;SDS011;64321;48.796;44.740;2022-10-15T08:03:25;4.78;;;1.80;;
75700;SDS011;64321;48.796;44.740;2022-10-15T08:05:51;4.55;;;2.10;;
75700;SDS011;64321;48.796;44.740;2022-10-15T08:08:20;3.92;;;1.95;;
75700;SDS011;64321;48.796;44.740;2022-10-15T08:10:46;4.55;;;2.55;;
75700;SDS011;64321;48.796;44.740;2022-10-15T08:13:12;4.43;;;2.40;;
75700;SDS011;64321;48.796;44.740;2022-10-15T08:15:38;3.78;;;2.40;;
75700;SDS011;64321;48.796;44.740;2022-10-15T08:18:04;4.13;;;2.63;;
75700;SDS011;64321;48.796;44.740;2022-10-15T08:20:30;4.88;;;2.53;;
75700;SDS011;64321;48.796;44.740;2022-10-15T08:22:56;3.80;;;2.63;;
75700;SDS011;64321;48.796;44.740;2022-10-15T08:25:21;4.13;;;2.13;;
75700;SDS011;64321;48.796;44.740;2022-10-15T08:27:47;6.05;;;2.47;;
75700;SDS011;64321;48.796;44.740;2022-10-15T08:30:13;6.18;;;2.20;;
75700;SDS011;64321;48.796;44.740;2022-10-15T08:32:38;5.20;;;2.03;;
75700;SDS011;64321;48.796;44.740;2022-10-15T08:35:04;5.82;;;2.25;;
75700;SDS011;64321;48.796;44.740;2022-10-15T08:37:31;4.10;;;1.70;;
75700;SDS011;64321;48.796;44.740;2022-10-15T08:39:56;3.65;;;2.22;;
75700;SDS011;64321;48.796;44.740;2022-10-15T08:42:26;7.05;;;2.47;;
75700;SDS011;64321;48.796;44.740;2022-10-15T08:44:57;4.93;;;1.70;;
75700;SDS011;64321;48.796;44.740;2022-10-15T08:47:37;5.65;;;2.75;;
75700;SDS011;64321;48.796;44.740;2022-10-15T08:52:46;6.65;;;2.30;;
75700;SDS011;64321;48.796;44.740;2022-10-15T08:55:16;4.50;;;1.63;;
75700;SDS011;64321;48.796;44.740;2022-10-15T08:57:52;5.07;;;1.80;;
75700;SDS011;64321;48.796;44.740;2022-10-15T09:08:21;4.28;;;2.38;;
75700;SDS011;64321;48.796;44.740;2022-10-15T09:10:51;4.43;;;1.88;;
75700;SDS011;64321;48.796;44.740;2022-10-15T09:13:34;4.47;;;1.40;;
75700;SDS011;64321;48.796;44.740;2022-10-15T09:16:10;5.70;;;1.10;;
75700;SDS011;64321;48.796;44.740;2022-10-15T09:18:37;4.65;;;1.35;;
75700;SDS011;64321;48.796;44.740;2022-10-15T09:21:05;5.00;;;1.90;;
75700;SDS011;64321;48.796;44.740;2022-10-15T09:23:32;3.38;;;1.23;;
75700;SDS011;64321;48.796;44.740;2022-10-15T09:28:55;4.63;;;2.15;;
75700;SDS011;64321;48.796;44.740;2022-10-15T09:31:28;4.05;;;1.58;;
75700;SDS011;64321;48.796;44.740;2022-10-15T09:34:09;4.30;;;2.17;;
75700;SDS011;64321;48.796;44.740;2022-10-15T09:36:40;4.03;;;1.30;;
75700;SDS011;64321;48.796;44.740;2022-10-15T09:44:20;4.75;;;1.27;;
75700;SDS011;64321;48.796;44.740;2022-10-15T09:46:48;6.65;;;2.95;;
75700;SDS011;64321;48.796;44.740;2022-10-15T09:49:19;4.82;;;2.35;;
75700;SDS011;64321;48.796;44.740;2022-10-15T09:52:06;4.63;;;1.40;;
75700;SDS011;64321;48.796;44.740;2022-10-15T09:54:43;4.50;;;2.50;;
75700;SDS011;64321;48.796;44.740;2022-10-15T09:57:10;4.32;;;1.85;;
75700;SDS011;64321;48.796;44.740;2022-10-15T09:59:37;4.28;;;1.52;;
75700;SDS011;64321;48.796;44.740;2022-10-15T10:02:17;4.30;;;1.55;;
75700;SDS011;64321;48.796;44.740;2022-10-15T10:04:43;3.97;;;1.42;;
75700;SDS011;64321;48.796;44.740;2022-10-15T10:07:22;4.22;;;1.55;;
75700;SDS011;64321;48.796;44.740;2022-10-15T10:09:53;4.95;;;1.55;;
75700;SDS011;64321;48.796;44.740;2022-10-15T10:12:20;5.55;;;2.38;;
75700;SDS011;64321;48.796;44.740;2022-10-15T10:17:19;3.85;;;1.48;;
75700;SDS011;64321;48.796;44.740;2022-10-15T10:20:01;6.10;;;2.50;;
75700;SDS011;64321;48.796;44.740;2022-10-15T10:22:26;3.58;;;2.00;;
75700;SDS011;64321;48.796;44.740;2022-10-15T10:24:52;6.72;;;3.35;;
75700;SDS011;64321;48.796;44.740;2022-10-15T10:27:28;7.45;;;2.60;;
75700;SDS011;64321;48.796;44.740;2022-10-15T10:29:56;2.67;;;1.25;;
75700;SDS011;64321;48.796;44.740;2022-10-15T10:32:25;5.80;;;1.92;;
75700;SDS011;64321;48.796;44.740;2022-10-15T10:34:51;4.55;;;1.60;;
75700;SDS011;64321;48.796;44.740;2022-10-15T10:37:18;4.63;;;2.17;;
75700;SDS011;64321;48.796;44.740;2022-10-15T10:39:43;3.90;;;1.45;;
75700;SDS011;64321;48.796;44.740;2022-10-15T10:44:44;5.68;;;3.00;;
75700;SDS011;64321;48.796;44.740;2022-10-15T10:47:21;6.43;;;2.47;;
75700;SDS011;64321;48.796;44.740;2022-10-15T10:49:53;5.38;;;1.90;;
75700;SDS011;64321;48.796;44.740;2022-10-15T10:52:28;5.25;;;2.50;;
75700;SDS011;64321;48.796;44.740;2022-10-15T11:00:22;8.75;;;1.98;;
75700;SDS011;64321;48.796;44.740;2022-10-15T11:02:49;6.40;;;1.85;;
75700;SDS011;64321;48.796;44.740;2022-10-15T11:05:16;6.22;;;1.67;;
75700;SDS011;64321;48.796;44.740;2022-10-15T11:07:47;3.50;;;1.80;;
75700;SDS011;64321;48.796;44.740;2022-10-15T11:10:29;5.50;;;2.00;;
75700;SDS011;64321;48.796;44.740;2022-10-15T11:15:41;4.38;;;1.60;;
75700;SDS011;64321;48.796;44.740;2022-10-15T11:31:10;2.50;;;1.00;;
75700;SDS011;64321;48.796;44.740;2022-10-15T11:33:43;6.13;;;1.10;;
75700;SDS011;64321;48.796;44.740;2022-10-15T11:36:22;3.80;;;1.25;;
75700;SDS011;64321;48.796;44.740;2022-10-15T11:38:59;3.08;;;1.30;;
75700;SDS011;64321;48.796;44.740;2022-10-15T11:44:03;3.42;;;1.60;;
75700;SDS011;64321;48.796;44.740;2022-10-15T11:46:36;3.03;;;1.20;;
75700;SDS011;64321;48.796;44.740;2022-10-15T11:51:58;2.92;;;1.08;;
75700;SDS011;64321;48.796;44.740;2022-10-15T11:57:15;4.60;;;1.33;;
75700;SDS011;64321;48.796;44.740;2022-10-15T11:59:50;4.15;;;1.50;;
75700;SDS011;64321;48.796;44.740;2022-10-15T12:02:21;2.92;;;1.27;;
75700;SDS011;64321;48.796;44.740;2022-10-15T12:04:59;3.15;;;0.93;;
75700;SDS011;64321;48.796;44.740;2022-10-15T12:12:40;2.22;;;0.82;;
75700;SDS011;64321;48.796;44.740;2022-10-15T12:17:45;3.40;;;1.25;;
75700;SDS011;64321;48.796;44.740;2022-10-15T12:20:15;3.30;;;1.02;;
75700;SDS011;64321;48.796;44.740;2022-10-15T12:22:58;3.28;;;0.93;;
75700;SDS011;64321;48.796;44.740;2022-10-15T12:28:11;2.67;;;0.80;;
75700;SDS011;64321;48.796;44.740;2022-10-15T12:30:39;2.63;;;1.15;;
75700;SDS011;64321;48.796;44.740;2022-10-15T12:33:50;5.03;;;0.93;;
75700;SDS011;64321;48.796;44.740;2022-10-15T12:35:52;1.75;;;0.63;;
75700;SDS011;64321;48.796;44.740;2022-10-15T12:38:21;2.40;;;1.00;;
75700;SDS011;64321;48.796;44.740;2022-10-15T12:40:56;3.85;;;0.93;;
75700;SDS011;64321;48.796;44.740;2022-10-15T12:43:23;3.47;;;0.82;;
75700;SDS011;64321;48.796;44.740;2022-10-15T12:50:41;2.85;;;1.00;;
75700;SDS011;64321;48.796;44.740;2022-10-15T13:01:05;3.28;;;1.00;;
75700;SDS011;64321;48.796;44.740;2022-10-15T13:03:55;4.75;;;1.10;;
75700;SDS011;64321;48.796;44.740;2022-10-15T13:11:20;3.85;;;1.10;;
75700;SDS011;64321;48.796;44.740;2022-10-15T13:13:47;5.65;;;1.73;;
75700;SDS011;64321;48.796;44.740;2022-10-15T13:16:13;5.22;;;1.50;;
75700;SDS011;64321;48.796;44.740;2022-10-15T13:18:39;3.95;;;1.45;;
75700;SDS011;64321;48.796;44.740;2022-10-15T13:21:08;5.20;;;0.85;;
75700;SDS011;64321;48.796;44.740;2022-10-15T13:23:34;5.75;;;1.20;;
75700;SDS011;64321;48.796;44.740;2022-10-15T13:28:35;3.83;;;0.90;;
75700;SDS011;64321;48.796;44.740;2022-10-15T13:31:04;3.53;;;0.93;;
75700;SDS011;64321;48.796;44.740;2022-10-15T13:33:30;2.47;;;0.80;;
75700;SDS011;64321;48.796;44.740;2022-10-15T13:36:06;5.72;;;1.75;;
75700;SDS011;64321;48.796;44.740;2022-10-15T13:38:32;5.50;;;1.58;;
75700;SDS011;64321;48.796;44.740;2022-10-15T13:40:57;5.65;;;1.52;;
75700;SDS011;64321;48.796;44.740;2022-10-15T13:43:24;4.10;;;1.05;;
75700;SDS011;64321;48.796;44.740;2022-10-15T13:45:54;4.55;;;0.77;;
75700;SDS011;64321;48.796;44.740;2022-10-15T13:48:21;4.78;;;1.58;;
75700;SDS011;64321;48.796;44.740;2022-10-15T13:50:57;6.00;;;2.33;;
75700;SDS011;64321;48.796;44.740;2022-10-15T13:53:34;2.60;;;0.90;;
75700;SDS011;64321;48.796;44.740;2022-10-15T13:56:01;5.97;;;1.00;;
75700;SDS011;64321;48.796;44.740;2022-10-15T13:58:28;6.40;;;1.88;;
75700;SDS011;64321;48.796;44.740;2022-10-15T14:01:03;8.43;;;2.42;;
75700;SDS011;64321;48.796;44.740;2022-10-15T14:03:33;7.25;;;1.73;;
75700;SDS011;64321;48.796;44.740;2022-10-15T14:06:16;3.30;;;0.77;;
75700;SDS011;64321;48.796;44.740;2022-10-15T14:08:42;3.97;;;1.88;;
75700;SDS011;64321;48.796;44.740;2022-10-15T14:11:09;6.97;;;2.17;;
75700;SDS011;64321;48.796;44.740;2022-10-15T14:13:35;7.47;;;2.53;;
75700;SDS011;64321;48.796;44.740;2022-10-15T14:18:54;4.88;;;2.10;;
75700;SDS011;64321;48.796;44.740;2022-10-15T14:21:22;6.82;;;2.72;;
75700;SDS011;64321;48.796;44.740;2022-10-15T14:24:02;6.72;;;2.67;;
75700;SDS011;64321;48.796;44.740;2022-10-15T14:26:28;6.82;;;1.98;;
75700;SDS011;64321;48.796;44.740;2022-10-15T14:28:54;10.93;;;3.20;;
75700;SDS011;64321;48.796;44.740;2022-10-15T14:31:26;7.38;;;2.53;;
75700;SDS011;64321;48.796;44.740;2022-10-15T14:33:53;8.60;;;3.28;;
75700;SDS011;64321;48.796;44.740;2022-10-15T14:36:31;12.45;;;3.38;;
75700;SDS011;64321;48.796;44.740;2022-10-15T14:41:56;12.40;;;4.40;;
75700;SDS011;64321;48.796;44.740;2022-10-15T14:44:22;10.75;;;4.13;;
75700;SDS011;64321;48.796;44.740;2022-10-15T14:46:48;13.23;;;4.43;;
75700;SDS011;64321;48.796;44.740;2022-10-15T14:49:22;17.52;;;4.40;;
75700;SDS011;64321;48.796;44.740;2022-10-15T14:52:10;23.20;;;4.97;;
75700;SDS011;64321;48.796;44.740;2022-10-15T14:54:41;22.92;;;4.95;;
75700;SDS011;64321;48.796;44.740;2022-10-15T14:57:14;23.23;;;5.13;;
75700;SDS011;64321;48.796;44.740;2022-10-15T14:59:40;35.83;;;5.35;;
75700;SDS011;64321;48.796;44.740;2022-10-15T15:02:08;21.65;;;5.53;;
75700;SDS011;64321;48.796;44.740;2022-10-15T15:04:39;30.25;;;5.57;;
75700;SDS011;64321;48.796;44.740;2022-10-15T15:07:09;28.25;;;5.22;;
75700;SDS011;64321;48.796;44.740;2022-10-15T15:09:35;35.92;;;7.25;;
75700;SDS011;64321;48.796;44.740;2022-10-15T15:12:00;33.38;;;6.97;;
75700;SDS011;64321;48.796;44.740;2022-10-15T15:14:26;40.22;;;8.48;;
75700;SDS011;64321;48.796;44.740;2022-10-15T15:16:52;39.85;;;9.70;;
75700;SDS011;64321;48.796;44.740;2022-10-15T15:19:17;33.40;;;8.93;;
75700;SDS011;64321;48.796;44.740;2022-10-15T15:21:43;29.27;;;9.73;;
75700;SDS011;64321;48.796;44.740;2022-10-15T15:24:12;27.05;;;7.60;;
75700;SDS011;64321;48.796;44.740;2022-10-15T15:26:37;21.02;;;5.47;;
75700;SDS011;64321;48.796;44.740;2022-10-15T15:29:08;26.70;;;5.47;;
75700;SDS011;64321;48.796;44.740;2022-10-15T15:31:34;12.55;;;5.13;;
75700;SDS011;64321;48.796;44.740;2022-10-15T15:33:59;11.65;;;3.33;;
75700;SDS011;64321;48.796;44.740;2022-10-15T15:36:25;14.55;;;3.75;;
75700;SDS011;64321;48.796;44.740;2022-10-15T15:38:52;8.93;;;4.45;;
75700;SDS011;64321;48.796;44.740;2022-10-15T15:41:22;14.80;;;6.72;;
75700;SDS011;64321;48.796;44.740;2022-10-15T15:43:49;12.73;;;5.45;;
75700;SDS011;64321;48.796;44.740;2022-10-15T15:46:15;11.40;;;5.68;;
75700;SDS011;64321;48.796;44.740;2022-10-15T15:48:41;15.63;;;5.80;;
75700;SDS011;64321;48.796;44.740;2022-10-15T15:53:35;17.10;;;7.07;;
75700;SDS011;64321;48.796;44.740;2022-10-15T15:56:01;13.77;;;5.68;;
75700;SDS011;64321;48.796;44.740;2022-10-15T15:58:28;14.38;;;4.75;;
75700;SDS011;64321;48.796;44.740;2022-10-15T16:00:53;13.05;;;6.05;;
75700;SDS011;64321;48.796;44.740;2022-10-15T16:03:19;18.23;;;7.07;;
75700;SDS011;64321;48.796;44.740;2022-10-15T16:05:44;20.63;;;7.85;;
75700;SDS011;64321;48.796;44.740;2022-10-15T16:08:11;24.42;;;10.57;;
75700;SDS011;64321;48.796;44.740;2022-10-15T16:10:37;28.10;;;10.85;;
75700;SDS011;64321;48.796;44.740;2022-10-15T16:13:02;24.55;;;10.05;;
75700;SDS011;64321;48.796;44.740;2022-10-15T16:15:29;22.02;;;7.60;;
75700;SDS011;64321;48.796;44.740;2022-10-15T16:17:55;16.08;;;5.35;;
75700;SDS011;64321;48.796;44.740;2022-10-15T16:20:20;15.43;;;4.10;;
75700;SDS011;64321;48.796;44.740;2022-10-15T16:22:50;12.98;;;4.50;;
75700;SDS011;64321;48.796;44.740;2022-10-15T16:25:15;14.27;;;4.93;;
75700;SDS011;64321;48.796;44.740;2022-10-15T16:27:41;14.10;;;3.85;;
75700;SDS011;64321;48.796;44.740;2022-10-15T16:30:09;18.10;;;3.38;;
75700;SDS011;64321;48.796;44.740;2022-10-15T16:32:35;18.00;;;2.97;;
75700;SDS011;64321;48.796;44.740;2022-10-15T16:35:01;8.93;;;2.63;;